sensor_id;sensor_type;location;lat;lon;timestamp;pressure;altitude;pressure_sealevel;temperature;humidity
76448;BME280;65284;51.040;13.722;2022-12-07T00:01:31;99755.63;;;1.95;83.76
76448;BME280;65284;51.040;13.722;2022-12-07T00:04:00;99756.34;;;1.97;83.69
76448;BME280;65284;51.040;13.722;2022-12-07T00:06:42;99743.16;;;1.98;83.57
76448;BME280;65284;51.040;13.722;2022-12-07T00:09:13;99746.09;;;1.94;83.70
76448;BME280;65284;51.040;13.722;2022-12-07T00:11:41;99740.84;;;1.94;83.38
76448;BME280;65284;51.040;13.722;2022-12-07T00:14:12;99753.63;;;1.98;83.40
76448;BME280;65284;51.040;13.722;2022-12-07T00:16:39;99739.66;;;1.98;83.34
76448;BME280;65284;51.040;13.722;2022-12-07T00:19:06;99736.34;;;1.96;83.79
76448;BME280;65284;51.040;13.722;2022-12-07T00:21:34;99728.03;;;2.02;83.38
76448;BME280;65284;51.040;13.722;2022-12-07T00:24:03;99740.63;;;1.97;83.26
76448;BME280;65284;51.040;13.722;2022-12-07T00:26:35;99736.13;;;1.99;83.05
76448;BME280;65284;51.040;13.722;2022-12-07T00:29:06;99731.22;;;1.94;83.76
76448;BME280;65284;51.040;13.722;2022-12-07T00:31:35;99729.31;;;1.96;83.41
76448;BME280;65284;51.040;13.722;2022-12-07T00:34:06;99721.34;;;1.98;83.00
76448;BME280;65284;51.040;13.722;2022-12-07T00:36:33;99723.72;;;2.01;83.32
76448;BME280;65284;51.040;13.722;2022-12-07T00:39:00;99726.34;;;2.01;82.93
76448;BME280;65284;51.040;13.722;2022-12-07T00:41:28;99728.28;;;1.99;82.90
76448;BME280;65284;51.040;13.722;2022-12-07T00:43:55;99731.34;;;2.04;82.28
76448;BME280;65284;51.040;13.722;2022-12-07T00:46:22;99710.41;;;2.04;82.70
76448;BME280;65284;51.040;13.722;2022-12-07T00:48:50;99714.22;;;2.00;82.85
76448;BME280;65284;51.040;13.722;2022-12-07T00:51:19;99715.88;;;2.01;82.87
76448;BME280;65284;51.040;13.722;2022-12-07T00:53:46;99721.34;;;1.98;83.22
76448;BME280;65284;51.040;13.722;2022-12-07T00:56:24;99706.34;;;2.00;83.13
76448;BME280;65284;51.040;13.722;2022-12-07T00:58:56;99707.91;;;2.02;83.21
76448;BME280;65284;51.040;13.722;2022-12-07T01:01:25;99709.47;;;2.05;82.98
76448;BME280;65284;51.040;13.722;2022-12-07T01:03:52;99710.88;;;1.98;83.60
76448;BME280;65284;51.040;13.722;2022-12-07T01:06:20;99709.34;;;2.07;83.07
76448;BME280;65284;51.040;13.722;2022-12-07T01:08:47;99719.22;;;2.03;83.23
76448;BME280;65284;51.040;13.722;2022-12-07T01:11:16;99710.81;;;2.11;83.07
76448;BME280;65284;51.040;13.722;2022-12-07T01:13:43;99708.53;;;2.06;83.12
76448;BME280;65284;51.040;13.722;2022-12-07T01:16:13;99712.84;;;2.07;82.99
76448;BME280;65284;51.040;13.722;2022-12-07T01:18:40;99713.25;;;2.01;82.95
76448;BME280;65284;51.040;13.722;2022-12-07T01:21:11;99703.75;;;2.00;83.65
76448;BME280;65284;51.040;13.722;2022-12-07T01:23:38;99696.00;;;1.98;83.60
76448;BME280;65284;51.040;13.722;2022-12-07T01:26:07;99703.75;;;2.00;83.62
76448;BME280;65284;51.040;13.722;2022-12-07T01:28:35;99702.06;;;1.99;83.42
76448;BME280;65284;51.040;13.722;2022-12-07T01:31:08;99699.94;;;2.04;83.57
76448;BME280;65284;51.040;13.722;2022-12-07T01:33:37;99706.03;;;2.04;83.31
76448;BME280;65284;51.040;13.722;2022-12-07T01:36:08;99698.50;;;2.00;83.53
76448;BME280;65284;51.040;13.722;2022-12-07T01:38:39;99703.63;;;2.01;83.29
76448;BME280;65284;51.040;13.722;2022-12-07T01:41:06;99702.34;;;2.07;83.28
76448;BME280;65284;51.040;13.722;2022-12-07T01:43:33;99697.66;;;1.99;84.17
76448;BME280;65284;51.040;13.722;2022-12-07T01:46:01;99709.22;;;1.97;83.66
76448;BME280;65284;51.040;13.722;2022-12-07T01:48:39;99694.09;;;2.00;83.44
76448;BME280;65284;51.040;13.722;2022-12-07T01:51:11;99702.53;;;1.93;83.75
76448;BME280;65284;51.040;13.722;2022-12-07T01:53:42;99698.72;;;1.97;83.59
76448;BME280;65284;51.040;13.722;2022-12-07T01:56:12;99705.41;;;2.01;83.62
76448;BME280;65284;51.040;13.722;2022-12-07T01:58:43;99716.56;;;1.92;84.10
76448;BME280;65284;51.040;13.722;2022-12-07T02:01:10;99699.69;;;1.96;83.54
76448;BME280;65284;51.040;13.722;2022-12-07T02:03:42;99706.06;;;1.80;84.28
76448;BME280;65284;51.040;13.722;2022-12-07T02:06:11;99704.28;;;1.81;84.26
76448;BME280;65284;51.040;13.722;2022-12-07T02:08:38;99703.44;;;1.80;84.10
76448;BME280;65284;51.040;13.722;2022-12-07T02:11:07;99701.03;;;1.77;84.21
76448;BME280;65284;51.040;13.722;2022-12-07T02:13:36;99697.69;;;1.75;84.58
76448;BME280;65284;51.040;13.722;2022-12-07T02:16:21;99695.53;;;1.69;84.61
76448;BME280;65284;51.040;13.722;2022-12-07T02:32:07;99690.78;;;1.50;84.37
76448;BME280;65284;51.040;13.722;2022-12-07T02:34:52;99686.59;;;1.48;84.50
76448;BME280;65284;51.040;13.722;2022-12-07T02:40:10;99684.50;;;1.53;83.98
76448;BME280;65284;51.040;13.722;2022-12-07T02:42:46;99683.28;;;1.46;84.21
76448;BME280;65284;51.040;13.722;2022-12-07T02:45:15;99680.16;;;1.41;84.47
76448;BME280;65284;51.040;13.722;2022-12-07T02:47:43;99675.75;;;1.41;84.65
76448;BME280;65284;51.040;13.722;2022-12-07T02:50:11;99672.38;;;1.52;84.13
76448;BME280;65284;51.040;13.722;2022-12-07T02:52:38;99662.34;;;1.46;84.16
76448;BME280;65284;51.040;13.722;2022-12-07T02:55:04;99663.41;;;1.43;83.77
76448;BME280;65284;51.040;13.722;2022-12-07T03:00:26;99662.34;;;1.46;84.01
76448;BME280;65284;51.040;13.722;2022-12-07T03:02:54;99658.78;;;1.47;83.73
76448;BME280;65284;51.040;13.722;2022-12-07T03:08:25;99658.91;;;1.45;84.14
76448;BME280;65284;51.040;13.722;2022-12-07T03:10:59;99651.66;;;1.49;83.88
76448;BME280;65284;51.040;13.722;2022-12-07T03:16:17;99655.31;;;1.46;84.23
76448;BME280;65284;51.040;13.722;2022-12-07T03:18:58;99649.53;;;1.54;84.11
76448;BME280;65284;51.040;13.722;2022-12-07T03:21:31;99645.09;;;1.43;84.23
76448;BME280;65284;51.040;13.722;2022-12-07T03:24:00;99637.84;;;1.47;83.38
76448;BME280;65284;51.040;13.722;2022-12-07T03:26:38;99641.13;;;1.38;84.32
76448;BME280;65284;51.040;13.722;2022-12-07T03:29:12;99629.72;;;1.39;84.22
76448;BME280;65284;51.040;13.722;2022-12-07T03:31:41;99635.06;;;1.37;84.33
76448;BME280;65284;51.040;13.722;2022-12-07T03:34:15;99637.09;;;1.33;84.55
76448;BME280;65284;51.040;13.722;2022-12-07T03:36:51;99636.84;;;1.36;84.28
76448;BME280;65284;51.040;13.722;2022-12-07T03:42:26;99634.84;;;1.40;84.03
76448;BME280;65284;51.040;13.722;2022-12-07T03:44:53;99633.72;;;1.31;84.27
76448;BME280;65284;51.040;13.722;2022-12-07T03:47:33;99625.38;;;1.26;84.32
76448;BME280;65284;51.040;13.722;2022-12-07T03:50:11;99622.66;;;1.28;83.55
76448;BME280;65284;51.040;13.722;2022-12-07T03:52:56;99622.81;;;1.38;83.17
76448;BME280;65284;51.040;13.722;2022-12-07T03:55:28;99623.25;;;1.31;83.12
76448;BME280;65284;51.040;13.722;2022-12-07T03:58:00;99619.22;;;1.27;83.34
76448;BME280;65284;51.040;13.722;2022-12-07T04:00:28;99618.63;;;1.35;82.36
76448;BME280;65284;51.040;13.722;2022-12-07T04:02:55;99614.69;;;1.29;82.52
76448;BME280;65284;51.040;13.722;2022-12-07T04:05:22;99622.25;;;1.21;82.61
76448;BME280;65284;51.040;13.722;2022-12-07T04:07:49;99619.91;;;1.29;82.39
76448;BME280;65284;51.040;13.722;2022-12-07T04:10:16;99612.75;;;1.20;82.69
76448;BME280;65284;51.040;13.722;2022-12-07T04:12:42;99611.47;;;1.26;82.40
76448;BME280;65284;51.040;13.722;2022-12-07T04:15:09;99612.28;;;1.26;82.19
76448;BME280;65284;51.040;13.722;2022-12-07T04:17:35;99610.13;;;1.20;82.18
76448;BME280;65284;51.040;13.722;2022-12-07T04:20:03;99598.00;;;1.19;82.45
76448;BME280;65284;51.040;13.722;2022-12-07T04:22:30;99599.88;;;1.17;81.91
76448;BME280;65284;51.040;13.722;2022-12-07T04:24:57;99592.03;;;1.17;82.08
76448;BME280;65284;51.040;13.722;2022-12-07T04:27:23;99599.50;;;1.10;82.28
76448;BME280;65284;51.040;13.722;2022-12-07T04:29:50;99597.09;;;1.07;82.27
76448;BME280;65284;51.040;13.722;2022-12-07T04:32:16;99595.53;;;1.05;82.51
76448;BME280;65284;51.040;13.722;2022-12-07T04:34:42;99591.81;;;1.20;81.39
76448;BME280;65284;51.040;13.722;2022-12-07T04:37:09;99594.06;;;1.13;81.62
76448;BME280;65284;51.040;13.722;2022-12-07T04:39:36;99582.84;;;1.11;81.70
76448;BME280;65284;51.040;13.722;2022-12-07T04:42:02;99576.28;;;1.06;81.81
76448;BME280;65284;51.040;13.722;2022-12-07T04:44:30;99577.25;;;1.05;81.53
76448;BME280;65284;51.040;13.722;2022-12-07T04:46:57;99559.31;;;1.11;81.14
76448;BME280;65284;51.040;13.722;2022-12-07T04:49:24;99558.94;;;1.05;81.34
76448;BME280;65284;51.040;13.722;2022-12-07T04:51:51;99554.47;;;1.18;80.98
76448;BME280;65284;51.040;13.722;2022-12-07T04:54:18;99546.97;;;1.13;80.96
76448;BME280;65284;51.040;13.722;2022-12-07T04:56:44;99551.81;;;1.07;81.09
76448;BME280;65284;51.040;13.722;2022-12-07T04:59:12;99551.81;;;1.07;81.56
76448;BME280;65284;51.040;13.722;2022-12-07T05:01:39;99560.28;;;1.10;81.40
76448;BME280;65284;51.040;13.722;2022-12-07T05:04:06;99560.72;;;1.04;81.57
76448;BME280;65284;51.040;13.722;2022-12-07T05:06:33;99550.41;;;1.14;81.48
76448;BME280;65284;51.040;13.722;2022-12-07T05:09:00;99552.59;;;1.20;81.17
76448;BME280;65284;51.040;13.722;2022-12-07T05:11:26;99542.81;;;1.11;81.72
76448;BME280;65284;51.040;13.722;2022-12-07T05:14:13;99539.44;;;1.09;81.58
76448;BME280;65284;51.040;13.722;2022-12-07T05:16:40;99541.69;;;1.02;82.10
76448;BME280;65284;51.040;13.722;2022-12-07T05:19:08;99537.06;;;1.06;81.66
76448;BME280;65284;51.040;13.722;2022-12-07T05:21:35;99543.25;;;1.05;81.55
76448;BME280;65284;51.040;13.722;2022-12-07T05:24:02;99539.91;;;1.03;81.26
76448;BME280;65284;51.040;13.722;2022-12-07T05:26:29;99543.25;;;1.05;81.17
76448;BME280;65284;51.040;13.722;2022-12-07T05:28:56;99541.38;;;1.07;81.43
76448;BME280;65284;51.040;13.722;2022-12-07T05:31:23;99543.31;;;1.16;80.54
76448;BME280;65284;51.040;13.722;2022-12-07T05:33:50;99546.28;;;1.23;80.34
76448;BME280;65284;51.040;13.722;2022-12-07T05:36:17;99540.25;;;1.22;80.29
76448;BME280;65284;51.040;13.722;2022-12-07T05:38:43;99528.31;;;1.18;80.27
76448;BME280;65284;51.040;13.722;2022-12-07T05:41:14;99530.97;;;1.29;79.86
76448;BME280;65284;51.040;13.722;2022-12-07T05:43:59;99522.19;;;1.30;79.93
76448;BME280;65284;51.040;13.722;2022-12-07T05:46:26;99519.19;;;1.24;79.85
76448;BME280;65284;51.040;13.722;2022-12-07T05:48:52;99519.81;;;1.27;79.82
76448;BME280;65284;51.040;13.722;2022-12-07T05:51:19;99517.19;;;1.27;79.97
76448;BME280;65284;51.040;13.722;2022-12-07T05:53:46;99511.75;;;1.30;79.76
76448;BME280;65284;51.040;13.722;2022-12-07T05:56:12;99504.81;;;1.29;79.74
76448;BME280;65284;51.040;13.722;2022-12-07T05:58:39;99516.97;;;1.30;79.57
76448;BME280;65284;51.040;13.722;2022-12-07T06:01:24;99510.88;;;1.30;79.75
76448;BME280;65284;51.040;13.722;2022-12-07T06:03:50;99517.66;;;1.32;79.69
76448;BME280;65284;51.040;13.722;2022-12-07T06:06:16;99505.81;;;1.40;79.13
76448;BME280;65284;51.040;13.722;2022-12-07T06:08:43;99509.66;;;1.58;78.44
76448;BME280;65284;51.040;13.722;2022-12-07T06:11:09;99513.19;;;1.46;79.25
76448;BME280;65284;51.040;13.722;2022-12-07T06:13:54;99505.34;;;1.46;79.31
76448;BME280;65284;51.040;13.722;2022-12-07T06:16:20;99507.00;;;1.47;79.08
76448;BME280;65284;51.040;13.722;2022-12-07T06:18:47;99509.16;;;1.53;78.99
76448;BME280;65284;51.040;13.722;2022-12-07T06:21:13;99505.47;;;1.55;79.07
76448;BME280;65284;51.040;13.722;2022-12-07T06:23:40;99498.59;;;1.54;78.95
76448;BME280;65284;51.040;13.722;2022-12-07T06:26:07;99494.19;;;1.55;79.11
76448;BME280;65284;51.040;13.722;2022-12-07T06:28:33;99497.44;;;1.70;78.57
76448;BME280;65284;51.040;13.722;2022-12-07T06:31:00;99495.88;;;1.78;78.11
76448;BME280;65284;51.040;13.722;2022-12-07T06:33:28;99493.97;;;1.69;78.76
76448;BME280;65284;51.040;13.722;2022-12-07T06:35:55;99504.69;;;1.66;79.02
76448;BME280;65284;51.040;13.722;2022-12-07T06:38:21;99493.13;;;1.80;78.74
76448;BME280;65284;51.040;13.722;2022-12-07T06:40:47;99497.31;;;1.82;78.71
76448;BME280;65284;51.040;13.722;2022-12-07T06:43:14;99496.72;;;1.79;78.92
76448;BME280;65284;51.040;13.722;2022-12-07T06:45:41;99498.63;;;1.88;79.03
76448;BME280;65284;51.040;13.722;2022-12-07T06:48:08;99499.69;;;1.74;80.18
76448;BME280;65284;51.040;13.722;2022-12-07T06:50:34;99500.66;;;1.85;80.17
76448;BME280;65284;51.040;13.722;2022-12-07T06:53:01;99510.88;;;1.88;80.50
76448;BME280;65284;51.040;13.722;2022-12-07T06:55:27;99504.69;;;1.77;81.08
76448;BME280;65284;51.040;13.722;2022-12-07T06:57:54;99496.34;;;1.72;81.71
76448;BME280;65284;51.040;13.722;2022-12-07T07:00:20;99492.06;;;1.82;81.65
76448;BME280;65284;51.040;13.722;2022-12-07T07:02:47;99497.53;;;1.79;81.88
76448;BME280;65284;51.040;13.722;2022-12-07T07:05:14;99495.41;;;1.85;82.01
76448;BME280;65284;51.040;13.722;2022-12-07T07:07:41;99492.66;;;1.86;82.39
76448;BME280;65284;51.040;13.722;2022-12-07T07:10:28;99503.03;;;1.88;82.88
76448;BME280;65284;51.040;13.722;2022-12-07T07:12:55;99497.91;;;1.86;82.91
76448;BME280;65284;51.040;13.722;2022-12-07T07:15:23;99497.78;;;1.76;83.84
76448;BME280;65284;51.040;13.722;2022-12-07T07:17:49;99503.97;;;1.75;83.98
76448;BME280;65284;51.040;13.722;2022-12-07T07:20:16;99502.06;;;1.66;84.58
76448;BME280;65284;51.040;13.722;2022-12-07T07:22:42;99497.53;;;1.57;84.99
76448;BME280;65284;51.040;13.722;2022-12-07T07:25:11;99505.38;;;1.57;85.38
76448;BME280;65284;51.040;13.722;2022-12-07T07:27:44;99508.84;;;1.57;85.51
76448;BME280;65284;51.040;13.722;2022-12-07T07:30:11;99504.88;;;1.52;86.06
76448;BME280;65284;51.040;13.722;2022-12-07T07:32:37;99499.53;;;1.42;86.68
76448;BME280;65284;51.040;13.722;2022-12-07T07:35:04;99501.91;;;1.45;86.67
76448;BME280;65284;51.040;13.722;2022-12-07T07:37:31;99514.13;;;1.45;86.69
76448;BME280;65284;51.040;13.722;2022-12-07T07:39:57;99511.50;;;1.45;86.69
76448;BME280;65284;51.040;13.722;2022-12-07T07:42:24;99511.78;;;1.53;86.50
76448;BME280;65284;51.040;13.722;2022-12-07T07:44:50;99531.41;;;1.58;85.98
76448;BME280;65284;51.040;13.722;2022-12-07T07:47:16;99503.47;;;1.59;85.72
76448;BME280;65284;51.040;13.722;2022-12-07T07:49:43;99513.00;;;1.71;85.30
76448;BME280;65284;51.040;13.722;2022-12-07T07:52:13;99524.66;;;1.67;85.37
76448;BME280;65284;51.040;13.722;2022-12-07T07:54:40;99525.63;;;1.77;85.32
76448;BME280;65284;51.040;13.722;2022-12-07T07:57:06;99522.78;;;1.80;85.35
76448;BME280;65284;51.040;13.722;2022-12-07T07:59:32;99524.72;;;1.90;85.03
76448;BME280;65284;51.040;13.722;2022-12-07T08:01:59;99523.75;;;1.91;84.82
76448;BME280;65284;51.040;13.722;2022-12-07T08:04:26;99532.09;;;1.96;85.19
76448;BME280;65284;51.040;13.722;2022-12-07T08:06:52;99529.56;;;1.94;84.86
76448;BME280;65284;51.040;13.722;2022-12-07T08:09:19;99536.59;;;1.94;84.58
76448;BME280;65284;51.040;13.722;2022-12-07T08:11:45;99528.50;;;1.97;85.00
76448;BME280;65284;51.040;13.722;2022-12-07T08:14:11;99526.63;;;1.99;84.94
76448;BME280;65284;51.040;13.722;2022-12-07T08:16:38;99527.81;;;2.06;84.61
76448;BME280;65284;51.040;13.722;2022-12-07T08:19:05;99519.94;;;2.06;84.63
76448;BME280;65284;51.040;13.722;2022-12-07T08:21:31;99534.47;;;1.99;84.76
76448;BME280;65284;51.040;13.722;2022-12-07T08:23:58;99517.47;;;2.04;84.58
76448;BME280;65284;51.040;13.722;2022-12-07T08:26:25;99513.63;;;2.09;84.52
76448;BME280;65284;51.040;13.722;2022-12-07T08:28:52;99509.81;;;2.13;84.18
76448;BME280;65284;51.040;13.722;2022-12-07T08:31:19;99510.91;;;2.10;84.33
76448;BME280;65284;51.040;13.722;2022-12-07T08:33:47;99519.22;;;2.15;84.00
76448;BME280;65284;51.040;13.722;2022-12-07T08:36:14;99519.22;;;2.15;83.90
76448;BME280;65284;51.040;13.722;2022-12-07T08:38:41;99513.50;;;2.21;83.80
76448;BME280;65284;51.040;13.722;2022-12-07T08:41:26;99519.72;;;2.20;83.22
76448;BME280;65284;51.040;13.722;2022-12-07T08:43:53;99521.84;;;2.26;83.19
76448;BME280;65284;51.040;13.722;2022-12-07T08:49:03;99522.19;;;2.33;83.23
76448;BME280;65284;51.040;13.722;2022-12-07T08:51:31;99519.47;;;2.35;82.84
76448;BME280;65284;51.040;13.722;2022-12-07T08:53:58;99521.72;;;2.39;82.69
76448;BME280;65284;51.040;13.722;2022-12-07T08:56:27;99540.78;;;2.41;82.73
76448;BME280;65284;51.040;13.722;2022-12-07T08:58:53;99515.63;;;2.50;82.54
76448;BME280;65284;51.040;13.722;2022-12-07T09:01:19;99553.03;;;2.52;82.52
76448;BME280;65284;51.040;13.722;2022-12-07T09:03:46;99521.59;;;2.52;82.60
76448;BME280;65284;51.040;13.722;2022-12-07T09:06:12;99524.91;;;2.54;82.41
76448;BME280;65284;51.040;13.722;2022-12-07T09:08:43;99537.53;;;2.60;82.17
76448;BME280;65284;51.040;13.722;2022-12-07T09:11:12;99524.19;;;2.63;82.29
76448;BME280;65284;51.040;13.722;2022-12-07T09:13:38;99525.13;;;2.73;81.49
76448;BME280;65284;51.040;13.722;2022-12-07T09:16:05;99530.38;;;2.73;81.75
76448;BME280;65284;51.040;13.722;2022-12-07T09:18:31;99507.66;;;2.84;81.25
76448;BME280;65284;51.040;13.722;2022-12-07T09:20:58;99516.03;;;2.78;81.21
76448;BME280;65284;51.040;13.722;2022-12-07T09:23:24;99532.50;;;2.80;80.89
76448;BME280;65284;51.040;13.722;2022-12-07T09:25:51;99525.56;;;2.90;81.06
76448;BME280;65284;51.040;13.722;2022-12-07T09:28:17;99524.13;;;2.86;81.20
76448;BME280;65284;51.040;13.722;2022-12-07T09:30:47;99533.28;;;2.91;80.57
76448;BME280;65284;51.040;13.722;2022-12-07T09:33:34;99534.59;;;2.97;80.48
76448;BME280;65284;51.040;13.722;2022-12-07T09:36:01;99523.97;;;2.99;80.14
76448;BME280;65284;51.040;13.722;2022-12-07T09:38:28;99534.69;;;2.95;80.01
76448;BME280;65284;51.040;13.722;2022-12-07T09:40:55;99530.06;;;2.99;79.42
76448;BME280;65284;51.040;13.722;2022-12-07T09:43:23;99523.72;;;3.02;79.15
76448;BME280;65284;51.040;13.722;2022-12-07T09:45:53;99527.06;;;3.04;79.48
76448;BME280;65284;51.040;13.722;2022-12-07T09:48:34;99531.72;;;3.00;78.93
76448;BME280;65284;51.040;13.722;2022-12-07T09:51:16;99517.59;;;3.12;78.57
76448;BME280;65284;51.040;13.722;2022-12-07T09:53:50;99525.22;;;3.15;78.00
76448;BME280;65284;51.040;13.722;2022-12-07T09:56:18;99517.50;;;3.14;77.69
76448;BME280;65284;51.040;13.722;2022-12-07T09:58:45;99516.19;;;3.08;78.20
76448;BME280;65284;51.040;13.722;2022-12-07T10:01:15;99514.72;;;3.15;77.97
76448;BME280;65284;51.040;13.722;2022-12-07T10:03:48;99523.16;;;3.19;77.74
76448;BME280;65284;51.040;13.722;2022-12-07T10:06:16;99507.31;;;3.21;77.89
76448;BME280;65284;51.040;13.722;2022-12-07T10:08:42;99511.34;;;3.25;78.08
76448;BME280;65284;51.040;13.722;2022-12-07T10:11:10;99492.97;;;3.25;78.01
76448;BME280;65284;51.040;13.722;2022-12-07T10:13:46;99500.47;;;3.29;78.30
76448;BME280;65284;51.040;13.722;2022-12-07T10:18:51;99489.78;;;3.42;77.62
76448;BME280;65284;51.040;13.722;2022-12-07T10:21:20;99489.28;;;3.48;77.49
76448;BME280;65284;51.040;13.722;2022-12-07T10:24:05;99510.28;;;3.48;76.87
76448;BME280;65284;51.040;13.722;2022-12-07T10:26:41;99494.16;;;3.53;77.24
76448;BME280;65284;51.040;13.722;2022-12-07T10:31:45;99505.94;;;3.58;77.39
76448;BME280;65284;51.040;13.722;2022-12-07T10:34:35;99499.00;;;3.57;76.87
76448;BME280;65284;51.040;13.722;2022-12-07T10:39:54;99489.19;;;3.59;77.38
76448;BME280;65284;51.040;13.722;2022-12-07T10:42:23;99506.09;;;3.67;77.09
76448;BME280;65284;51.040;13.722;2022-12-07T10:45:16;99489.41;;;3.68;77.61
76448;BME280;65284;51.040;13.722;2022-12-07T10:48:13;99499.63;;;3.71;77.37
76448;BME280;65284;51.040;13.722;2022-12-07T10:51:14;99500.16;;;3.64;77.34
76448;BME280;65284;51.040;13.722;2022-12-07T10:53:53;99491.50;;;3.74;77.48
76448;BME280;65284;51.040;13.722;2022-12-07T10:56:45;99479.97;;;3.65;77.87
76448;BME280;65284;51.040;13.722;2022-12-07T10:59:24;99488.63;;;3.77;77.41
76448;BME280;65284;51.040;13.722;2022-12-07T11:07:56;99469.53;;;3.75;77.64
76448;BME280;65284;51.040;13.722;2022-12-07T11:10:47;99453.22;;;3.81;78.17
76448;BME280;65284;51.040;13.722;2022-12-07T11:16:04;99453.97;;;3.93;77.19
76448;BME280;65284;51.040;13.722;2022-12-07T11:18:57;99454.28;;;3.99;77.43
76448;BME280;65284;51.040;13.722;2022-12-07T11:21:44;99451.41;;;4.02;77.39
76448;BME280;65284;51.040;13.722;2022-12-07T11:24:18;99452.50;;;4.00;77.12
76448;BME280;65284;51.040;13.722;2022-12-07T11:29:58;99457.97;;;3.87;77.60
76448;BME280;65284;51.040;13.722;2022-12-07T11:37:41;99467.31;;;3.49;81.85
76448;BME280;65284;51.040;13.722;2022-12-07T11:40:25;99469.88;;;3.18;82.75
76448;BME280;65284;51.040;13.722;2022-12-07T11:43:18;99457.50;;;3.09;84.30
76448;BME280;65284;51.040;13.722;2022-12-07T11:45:48;99462.19;;;3.06;84.15
76448;BME280;65284;51.040;13.722;2022-12-07T11:48:33;99459.16;;;3.10;84.01
76448;BME280;65284;51.040;13.722;2022-12-07T11:51:01;99453.91;;;3.10;84.16
76448;BME280;65284;51.040;13.722;2022-12-07T11:56:12;99460.59;;;3.14;83.55
76448;BME280;65284;51.040;13.722;2022-12-07T11:59:00;99445.53;;;3.16;83.61
76448;BME280;65284;51.040;13.722;2022-12-07T12:03:59;99446.97;;;3.21;83.54
76448;BME280;65284;51.040;13.722;2022-12-07T12:06:27;99443.94;;;3.25;83.81
76448;BME280;65284;51.040;13.722;2022-12-07T12:09:06;99442.22;;;3.35;83.09
76448;BME280;65284;51.040;13.722;2022-12-07T12:15:42;99419.81;;;3.52;81.40
76448;BME280;65284;51.040;13.722;2022-12-07T12:20:51;99430.22;;;3.63;80.69
76448;BME280;65284;51.040;13.722;2022-12-07T12:26:01;99436.31;;;3.64;80.97
76448;BME280;65284;51.040;13.722;2022-12-07T12:31:32;99446.47;;;3.57;81.21
76448;BME280;65284;51.040;13.722;2022-12-07T12:34:04;99440.97;;;3.60;80.71
76448;BME280;65284;51.040;13.722;2022-12-07T12:36:49;99466.47;;;3.28;82.60
76448;BME280;65284;51.040;13.722;2022-12-07T12:39:17;99460.19;;;2.98;83.41
76448;BME280;65284;51.040;13.722;2022-12-07T12:46:49;99433.38;;;2.62;85.26
76448;BME280;65284;51.040;13.722;2022-12-07T12:54:23;99443.88;;;2.62;84.96
76448;BME280;65284;51.040;13.722;2022-12-07T12:57:14;99446.88;;;2.58;86.29
76448;BME280;65284;51.040;13.722;2022-12-07T13:02:35;99450.59;;;2.44;87.02
76448;BME280;65284;51.040;13.722;2022-12-07T13:05:18;99443.69;;;2.43;87.31
76448;BME280;65284;51.040;13.722;2022-12-07T13:10:33;99441.56;;;2.37;87.34
76448;BME280;65284;51.040;13.722;2022-12-07T13:15:38;99467.53;;;2.40;86.77
76448;BME280;65284;51.040;13.722;2022-12-07T13:20:57;99439.16;;;2.34;87.16
76448;BME280;65284;51.040;13.722;2022-12-07T13:23:38;99449.31;;;2.27;87.21
76448;BME280;65284;51.040;13.722;2022-12-07T13:28:51;99442.50;;;2.36;86.69
76448;BME280;65284;51.040;13.722;2022-12-07T13:34:01;99444.22;;;2.25;85.97
76448;BME280;65284;51.040;13.722;2022-12-07T13:36:37;99448.16;;;2.20;87.32
76448;BME280;65284;51.040;13.722;2022-12-07T13:41:41;99438.88;;;2.04;87.19
76448;BME280;65284;51.040;13.722;2022-12-07T13:44:14;99445.91;;;1.93;87.61
76448;BME280;65284;51.040;13.722;2022-12-07T13:49:24;99456.63;;;1.90;88.49
76448;BME280;65284;51.040;13.722;2022-12-07T13:51:51;99452.91;;;1.92;88.40
76448;BME280;65284;51.040;13.722;2022-12-07T13:54:19;99438.41;;;1.88;89.18
76448;BME280;65284;51.040;13.722;2022-12-07T13:56:52;99442.56;;;1.91;89.41
76448;BME280;65284;51.040;13.722;2022-12-07T13:59:21;99442.09;;;1.97;88.59
76448;BME280;65284;51.040;13.722;2022-12-07T14:01:49;99455.91;;;1.99;88.83
76448;BME280;65284;51.040;13.722;2022-12-07T14:04:36;99441.13;;;2.09;88.09
76448;BME280;65284;51.040;13.722;2022-12-07T14:07:29;99439.47;;;2.08;88.57
76448;BME280;65284;51.040;13.722;2022-12-07T14:10:06;99443.50;;;2.12;88.32
76448;BME280;65284;51.040;13.722;2022-12-07T14:12:36;99438.25;;;2.23;87.26
76448;BME280;65284;51.040;13.722;2022-12-07T14:15:03;99430.38;;;2.23;87.78
76448;BME280;65284;51.040;13.722;2022-12-07T14:17:30;99438.00;;;2.26;87.55
76448;BME280;65284;51.040;13.722;2022-12-07T14:19:59;99439.41;;;2.31;87.48
76448;BME280;65284;51.040;13.722;2022-12-07T14:22:33;99431.78;;;2.39;87.02
76448;BME280;65284;51.040;13.722;2022-12-07T14:27:57;99433.31;;;2.53;86.29
76448;BME280;65284;51.040;13.722;2022-12-07T14:30:32;99419.56;;;2.60;85.44
76448;BME280;65284;51.040;13.722;2022-12-07T14:33:02;99428.13;;;2.62;85.81
76448;BME280;65284;51.040;13.722;2022-12-07T14:35:29;99420.50;;;2.70;85.37
76448;BME280;65284;51.040;13.722;2022-12-07T14:37:57;99415.00;;;2.73;85.39
76448;BME280;65284;51.040;13.722;2022-12-07T14:40:25;99407.25;;;2.72;85.31
76448;BME280;65284;51.040;13.722;2022-12-07T14:43:05;99414.50;;;2.80;85.56
76448;BME280;65284;51.040;13.722;2022-12-07T14:45:34;99403.63;;;2.84;85.20
76448;BME280;65284;51.040;13.722;2022-12-07T14:48:01;99417.81;;;2.82;85.35
76448;BME280;65284;51.040;13.722;2022-12-07T14:50:51;99412.59;;;2.82;85.13
76448;BME280;65284;51.040;13.722;2022-12-07T14:53:45;99406.56;;;2.91;83.79
76448;BME280;65284;51.040;13.722;2022-12-07T14:56:18;99410.84;;;2.92;83.67
76448;BME280;65284;51.040;13.722;2022-12-07T14:58:44;99412.28;;;2.96;83.40
76448;BME280;65284;51.040;13.722;2022-12-07T15:01:14;99410.16;;;2.90;83.62
76448;BME280;65284;51.040;13.722;2022-12-07T15:03:40;99417.53;;;2.96;82.99
76448;BME280;65284;51.040;13.722;2022-12-07T15:06:07;99415.16;;;2.93;82.97